This demonstration page uses our WeatherBlox Daily Observations layout. Learn more.

41.55636, -103.73856

Hourly Observations for April 17, 2019

Temp ( °F °C ) Dew Point ( °F °C ) Humidity (%) Winds ( mph kmh ) Pressure ( in mb ) Visibility ( mi km ) Precip ( " mm )
12:58 am 00:58 Mostly Cloudy 56 13.1 42 5.6 61 61 SSW 9 15 29.72 1007 10 16.0934 0 0
1:58 am 01:58 Mostly Cloudy 51 10.8 42 5.7 71 71 SSW 10 17 29.72 1007 10 16.0934 0 0
2:58 am 02:58 Mostly Cloudy 51 10.6 41 5.2 70 70 S 10 17 29.7 1006 10 16.0934 0 0
3:58 am 03:58 Mostly Cloudy 48 8.8 40 4.5 75 75 W 7 11 29.75 1007 10 16.0934 0 0
4:58 am 04:58 Partly Cloudy 43 6.3 38 3.2 81 81 WNW 14 22 29.75 1008 10 16.0934 0 0
5:58 am 05:58 Mostly Cloudy 45 7.3 38 3.1 75 75 W 13 20 29.78 1008 10 16.0934 0 0
6:58 am 06:58 Mostly Cloudy 47 8.3 36 2.4 67 67 WNW 17 28 29.76 1008 10 16.0934 0 0
7:58 am 07:58 Mostly Cloudy 49 9.6 36 2.4 61 61 NW 17 28 29.75 1008 10 16.0934 0 0
8:58 am 08:58 Clear 48 8.8 37 2.6 65 65 NW 22 35 29.75 1008 10 16.0934 0 0
9:58 am 09:58 Mostly Cloudy 43 6.2 39 4 86 86 N 18 30 29.78 1009 10 16.0934 0 0
10:58 am 10:58 Cloudy 43 5.9 38 3.4 84 84 NNW 21 33 29.81 1010 10 16.0934 0 0
11:58 am 11:58 Partly Cloudy 41 5.1 37 2.5 83 83 N 21 33 29.81 1010 10 16.0934 0 0
12:58 pm 12:58 Sunny 40 4.6 36 2.3 85 85 NNW 21 33 29.86 1011 10 16.0934 0 0
1:59 pm 13:59 Partly Cloudy 42 5.6 35 1.4 75 75 NNW 18 30 29.91 1013 10 16.0934 0 0
4:58 pm 16:58 Mostly Cloudy 48 8.9 32 0.2 55 55 NNW 18 30 29.97 1015 10 16.0934 0 0
5:58 pm 17:58 Mostly Sunny 52 10.9 32 0.1 48 48 NNW 25 41 29.92 1013 10 16.0934 0 0
6:59 pm 18:59 Sunny 53 11.7 29 -1.8 39 39 NNW 24 39 29.9 1012 10 16.0934 0 0
7:58 pm 19:58 Mostly Sunny 55 12.6 31 -0.7 40 40 NNW 14 22 29.87 1011 10 16.0934 0 0
8:58 pm 20:58 Mostly Sunny 56 13.2 31 -0.5 39 39 NNW 18 30 29.85 1011 10 16.0934 0 0
10:58 pm 22:58 Sunny 56 13.1 30 -1.2 37 37 N 18 30 29.86 1011 10 16.0934 0 0
11:58 pm 23:58 Mostly Cloudy 53 11.6 30 -1.1 42 42 N 16 26 29.87 1012 10 16.0934 0 0

Powered by AerisWeather